Tuesday, January 17, 2017, 8:32 PM EST

KEZF, Fredericksburg, Shannon Airport

Location: Fredericksburg, VA, United States Lat: 38.267
Local Time: 8:32 PM EST ( 1:32 GMT) Lon: -77.45
Time Zone: US/Eastern Elev: 85 ft

Show me the last for .
Show Decoded

2017-01-17 20:15 METAR KEZF 180115Z AUTO 22010G17KT 10SM CLR 14/14 A2996 RMK AO2 T01400135 =
2017-01-17 19:55 METAR KEZF 180055Z AUTO 23010G17KT 10SM CLR 14/14 A2996 RMK AO2 T01400135 =
2017-01-17 19:35 METAR KEZF 180035Z AUTO 22013G19KT 10SM CLR 14/14 A2996 RMK AO2 T01400135 =
2017-01-17 19:15 METAR KEZF 180015Z AUTO 22010G17KT 10SM CLR 14/13 A2996 RMK AO2 T01370133 =
2017-01-17 18:55 METAR KEZF 172355Z AUTO 21009G15KT 10SM SCT016 14/13 A2996 RMK AO2 60004
                 T01360133 10137 20105 =
2017-01-17 18:35 METAR KEZF 172335Z AUTO 22011G15KT 10SM BKN016 14/13 A2996 RMK AO2 T01360132 =
2017-01-17 18:15 METAR KEZF 172315Z AUTO 22011G15KT 10SM OVC016 14/13 A2997 RMK AO2 T01350132 =
2017-01-17 17:55 METAR KEZF 172255Z AUTO 21010G15KT 10SM OVC016 13/13 A2997 RMK AO2 T01310131 =
2017-01-17 17:35 METAR KEZF 172235Z AUTO 21008G15KT 10SM BKN016 BKN055 13/13 A2998 RMK AO2
                 T01300130 =
2017-01-17 17:15 METAR KEZF 172215Z AUTO 22010G16KT 10SM BKN014 BKN055 13/13 A2999 RMK AO2
                 T01280128 =
2017-01-17 16:55 METAR KEZF 172155Z AUTO 21010G14KT 10SM OVC012 13/13 A2999 RMK AO2 T01260126 =
2017-01-17 16:35 METAR KEZF 172135Z AUTO 21005KT 10SM OVC012 12/12 A3000 RMK AO2 T01220122 =
2017-01-17 16:15 METAR KEZF 172115Z AUTO 21004KT 7SM OVC014 12/12 A3000 RMK AO2 T01190119 =
2017-01-17 15:55 METAR KEZF 172055Z AUTO 18003KT 7SM OVC016 12/12 A3001 RMK AO2 60004 T01170117 =
2017-01-17 15:35 METAR KEZF 172035Z AUTO 00000KT 7SM BKN016 BKN060 OVC080 12/12 A3001 RMK AO2
                 T01160116 =
2017-01-17 15:15 METAR KEZF 172015Z AUTO 17003KT 7SM SCT016 BKN060 OVC080 12/12 A3000 RMK AO2
                 T01150115 =
2017-01-17 14:55 METAR KEZF 171955Z AUTO 17004KT 10SM SCT016 OVC060 11/11 A3001 RMK AO2 P0002
                 T01130113 =
2017-01-17 14:35 METAR KEZF 171935Z AUTO 21004KT 5SM -RA BKN060 OVC080 11/11 A3002 RMK AO2 P0002
                 T01140114 =
2017-01-17 14:15 METAR KEZF 171915Z AUTO 19005KT 7SM SCT014 OVC070 11/11 A3003 RMK AO2 P0001
                 T01140114 =
2017-01-17 13:55 METAR KEZF 171855Z AUTO 19007KT 7SM -RA BKN012 BKN021 OVC070 11/11 A3004 RMK AO2
                 P0002 T01110111 =
2017-01-17 13:35 METAR KEZF 171835Z AUTO 20006KT 10SM RA OVC010 11/11 A3005 RMK AO2 T01110110 =
2017-01-17 13:15 METAR KEZF 171815Z AUTO 22005KT 10SM OVC010 11/11 A3006 RMK AO2 T01080106 =
2017-01-17 12:55 METAR KEZF 171755Z AUTO 20006KT 10SM OVC008 10/10 A3006 RMK AO2 60002 T01040104
                 10104 20055 =
2017-01-17 12:35 METAR KEZF 171735Z AUTO 00000KT 10SM OVC008 10/10 A3008 RMK AO2 T00980098 =
2017-01-17 12:15 METAR KEZF 171715Z AUTO 20005KT 10SM OVC008 09/09 A3010 RMK AO2 T00930093 =
2017-01-17 11:55 METAR KEZF 171655Z AUTO 23003KT 10SM OVC008 09/09 A3011 RMK AO2 T00890089 =
2017-01-17 11:35 METAR KEZF 171635Z AUTO 18004KT 10SM OVC008 08/08 A3011 RMK AO2 T00840084 =
2017-01-17 11:15 METAR KEZF 171615Z AUTO 18008KT 10SM OVC008 08/08 A3012 RMK AO2 T00800080 =
2017-01-17 10:55 METAR KEZF 171555Z AUTO 14003KT 7SM -RA BKN008 BKN110 08/08 A3014 RMK AO2 P0001
                 T00750075 =
2017-01-17 10:35 METAR KEZF 171535Z AUTO 14004KT 5SM BR SCT006 SCT075 SCT110 07/07 A3015 RMK AO2
                 P0001 T00700070 =
2017-01-17 10:15 METAR KEZF 171515Z AUTO 14005KT 7SM -RA SCT018 SCT044 SCT075 07/07 A3018 RMK AO2
                 P0001 T00690069 =
2017-01-17 09:55 METAR KEZF 171455Z AUTO 00000KT 7SM RA SCT020 SCT029 SCT046 07/07 A3019 RMK AO2
                 P0001 60001 T00650065 =
2017-01-17 09:35 METAR KEZF 171435Z AUTO 00000KT 7SM -RA SCT022 SCT029 SCT037 07/07 A3020 RMK AO2
                 T00650065 =
2017-01-17 09:15 METAR KEZF 171415Z AUTO 00000KT 10SM -RA SCT080 SCT100 07/07 A3020 RMK AO2
                 T00650065 =
2017-01-17 08:55 METAR KEZF 171355Z AUTO 00000KT 10SM -RA SCT100 07/07 A3020 RMK AO2 T00650065 =
2017-01-17 08:35 METAR KEZF 171335Z AUTO 00000KT 10SM CLR 06/06 A3019 RMK AO2 T00620062 =
2017-01-17 08:15 METAR KEZF 171315Z AUTO 00000KT 10SM BKN110 06/06 A3019 RMK AO2 T00610061 =
2017-01-17 07:55 METAR KEZF 171255Z AUTO 00000KT 10SM OVC110 06/06 A3019 RMK AO2 T00600060 =
2017-01-17 07:35 METAR KEZF 171235Z AUTO 00000KT 10SM OVC110 06/06 A3018 RMK AO2 T00580058 =
2017-01-17 07:15 METAR KEZF 171215Z AUTO 00000KT 10SM OVC120 06/06 A3018 RMK AO2 T00560056 =
2017-01-17 06:55 METAR KEZF 171155Z AUTO 00000KT 10SM SCT100 BKN120 06/06 A3019 RMK AO2 T00550055
                 10055 20041 =
2017-01-17 06:35 METAR KEZF 171135Z AUTO 00000KT 10SM SCT100 BKN120 05/05 A3019 RMK AO2 T00530053
                 =
2017-01-17 06:15 METAR KEZF 171115Z AUTO 16003KT 10SM OVC100 05/05 A3018 RMK AO2 T00510051 =
2017-01-17 05:55 METAR KEZF 171055Z AUTO 15003KT 10SM OVC090 05/05 A3019 RMK AO2 T00510051 =
2017-01-17 05:35 METAR KEZF 171035Z AUTO 14005KT 7SM OVC090 05/05 A3019 RMK AO2 T00480048 =
2017-01-17 05:15 METAR KEZF 171015Z AUTO 14003KT 10SM OVC080 05/05 A3020 RMK AO2 T00450045 =
2017-01-17 04:55 METAR KEZF 170955Z AUTO 14003KT 7SM OVC080 05/05 A3021 RMK AO2 T00450045 =
2017-01-17 04:35 METAR KEZF 170935Z AUTO 00000KT 10SM SCT080 BKN110 05/05 A3021 RMK AO2 T00460046
                 =
2017-01-17 04:15 METAR KEZF 170915Z AUTO 00000KT 10SM SCT080 BKN110 05/05 A3022 RMK AO2 T00450045
                 =
2017-01-17 03:55 METAR KEZF 170855Z AUTO 00000KT 10SM SCT110 05/05 A3023 RMK AO2 T00450045 =
2017-01-17 03:35 METAR KEZF 170835Z AUTO 00000KT 10SM CLR 05/05 A3024 RMK AO2 T00450045 =
2017-01-17 03:15 METAR KEZF 170815Z AUTO 00000KT 10SM CLR 05/05 A3024 RMK AO2 T00450045 =
2017-01-17 02:55 METAR KEZF 170755Z AUTO 00000KT 10SM SCT090 05/05 A3024 RMK AO2 T00450045 =
2017-01-17 02:35 METAR KEZF 170735Z AUTO 00000KT 10SM OVC090 05/04 A3025 RMK AO2 T00450044 =
2017-01-17 02:15 METAR KEZF 170715Z AUTO 00000KT 10SM BKN100 05/05 A3025 RMK AO2 T00450045 =
2017-01-17 01:55 METAR KEZF 170655Z AUTO 00000KT 7SM SCT075 SCT100 05/04 A3026 RMK AO2 T00470043
                 =
2017-01-17 01:35 METAR KEZF 170635Z AUTO 00000KT 10SM SCT075 BKN100 04/04 A3026 RMK AO2 T00420041
                 =
2017-01-17 01:15 METAR KEZF 170615Z AUTO 00000KT 10SM CLR 05/04 A3026 RMK AO2 T00460036 =
2017-01-17 00:55 METAR KEZF 170555Z AUTO 00000KT 10SM CLR 05/04 A3027 RMK AO2 T00480038 10063
                 20046 400800037 =
2017-01-17 00:35 METAR KEZF 170535Z AUTO 00000KT 10SM CLR 05/04 A3028 RMK AO2 T00470036 =
2017-01-17 00:15 METAR KEZF 170515Z AUTO 00000KT 10SM SCT110 05/04 A3028 RMK AO2 T00470036 =
2017-01-16 23:55 METAR KEZF 170455Z AUTO 15003KT 10SM BKN110 05/04 A3028 RMK AO2 T00530037 =
2017-01-16 23:35 METAR KEZF 170435Z AUTO 15003KT 10SM SCT019 SCT110 05/04 A3030 RMK AO2 T00530036
                 =
2017-01-16 23:15 METAR KEZF 170415Z AUTO 14004KT 10SM OVC019 06/04 A3030 RMK AO2 T00560036 =
2017-01-16 22:55 METAR KEZF 170355Z AUTO 14004KT 10SM OVC019 06/04 A3031 RMK AO2 T00590037 =
2017-01-16 22:35 METAR KEZF 170335Z AUTO 16004KT 10SM OVC019 06/04 A3032 RMK AO2 T00590037 =
2017-01-16 22:15 METAR KEZF 170315Z AUTO 17003KT 10SM OVC019 06/04 A3033 RMK AO2 T00600035 =
2017-01-16 21:55 METAR KEZF 170255Z AUTO 16005KT 10SM OVC021 06/03 A3033 RMK AO2 T00590034 =
2017-01-16 21:35 METAR KEZF 170235Z AUTO 17004KT 10SM OVC021 06/03 A3034 RMK AO2 T00590031 =
2017-01-16 21:15 METAR KEZF 170215Z AUTO 16004KT 10SM OVC023 06/03 A3034 RMK AO2 T00570030 =
2017-01-16 20:55 METAR KEZF 170155Z AUTO 15005KT 10SM OVC023 06/03 A3035 RMK AO2 T00600030 =
2017-01-16 20:35 METAR KEZF 170135Z AUTO 17004KT 10SM BKN018 OVC023 06/03 A3035 RMK AO2 T00600028
                 =

Support USWX by starting your Amazon purchase here.